Time;durP1;ratioP1;P1;durP2;ratioP2;P2;SDS_P1;SDS_P2;PMS_P1;PMS_P2;Temp;Humidity;BMP_temperature;BMP_pressure;BME280_temperature;BME280_humidity;BME280_pressure;Samples;Min_cycle;Max_cycle;Signal;HPM_P1;HPM_P2
2024/02/24 00:01:24;;;;;;;1.83;1.10;;;;;;;0.52;100.00;90954.16;4724663;30;20059;-88
2024/02/24 00:03:50;;;;;;;1.50;1.10;;;;;;;0.58;100.00;90963.38;4729192;30;20537;-88
2024/02/24 00:06:15;;;;;;;1.23;1.00;;;;;;;0.59;100.00;90953.88;4714508;30;20044;-88
2024/02/24 00:08:41;;;;;;;1.13;0.93;;;;;;;0.65;100.00;90964.91;4736053;30;20033;-88
2024/02/24 00:11:07;;;;;;;0.70;0.70;;;;;;;0.68;100.00;90959.25;4741960;30;20119;-88
2024/02/24 00:13:33;;;;;;;0.75;0.75;;;;;;;0.60;100.00;90950.25;4721675;30;20115;-88
2024/02/24 00:15:59;;;;;;;4.15;2.17;;;;;;;0.65;100.00;90962.34;4747286;30;20382;-88
2024/02/24 00:18:24;;;;;;;6.57;2.40;;;;;;;0.79;100.00;90973.63;4742651;30;20136;-87
2024/02/24 00:20:50;;;;;;;3.20;1.70;;;;;;;0.80;100.00;90975.16;4744490;30;20445;-88
2024/02/24 00:23:15;;;;;;;1.73;1.15;;;;;;;0.83;100.00;90980.59;4730691;30;20515;-88
2024/02/24 00:25:41;;;;;;;1.13;1.00;;;;;;;0.76;100.00;90979.31;4706138;30;20096;-89
2024/02/24 00:28:09;;;;;;;0.80;0.80;;;;;;;0.80;100.00;90981.09;4732606;30;20427;-89
2024/02/24 00:30:35;;;;;;;1.02;0.93;;;;;;;0.91;100.00;90997.28;4746666;30;20134;-88
2024/02/24 00:33:00;;;;;;;0.80;0.80;;;;;;;0.91;100.00;90989.56;4709534;30;20123;-87
2024/02/24 00:35:28;;;;;;;1.05;0.80;;;;;;;0.97;100.00;90998.81;4725768;30;20072;-88
2024/02/24 00:37:55;;;;;;;3.67;1.80;;;;;;;1.04;100.00;90991.56;4739681;30;20041;-88
2024/02/24 00:40:21;;;;;;;2.05;1.02;;;;;;;1.22;100.00;91005.66;4718203;30;20656;-88
2024/02/24 00:42:46;;;;;;;1.40;0.98;;;;;;;1.25;100.00;91002.56;4725828;30;20040;-88
2024/02/24 00:45:12;;;;;;;1.83;0.90;;;;;;;1.15;100.00;90988.94;4710642;30;20151;-89
2024/02/24 00:47:37;;;;;;;1.08;0.98;;;;;;;1.32;100.00;91017.72;4746543;30;20028;-88
2024/02/24 00:50:04;;;;;;;1.10;0.95;;;;;;;1.16;100.00;91000.81;4740407;30;20393;-89
2024/02/24 00:52:31;;;;;;;1.08;0.88;;;;;;;1.29;100.00;91018.28;4742437;30;20104;-88
2024/02/24 00:54:57;;;;;;;1.05;0.95;;;;;;;1.24;100.00;91011.34;4753413;30;20044;-88
2024/02/24 00:57:23;;;;;;;1.90;0.90;;;;;;;1.14;100.00;91001.06;4744512;30;20096;-89
2024/02/24 00:59:49;;;;;;;1.15;1.00;;;;;;;1.16;100.00;91000.81;4742694;30;20051;-88
2024/02/24 01:02:14;;;;;;;0.80;0.80;;;;;;;1.03;100.00;90979.69;4730563;30;20070;-88
2024/02/24 01:04:40;;;;;;;0.73;0.73;;;;;;;0.89;100.00;90968.44;4735195;30;20063;-88
2024/02/24 01:07:06;;;;;;;0.80;0.80;;;;;;;1.02;100.00;90988.47;4734129;30;20508;-89
2024/02/24 01:09:32;;;;;;;0.60;0.60;;;;;;;0.98;100.00;90987.47;4720847;30;20056;-90
2024/02/24 01:11:57;;;;;;;0.70;0.70;;;;;;;0.77;100.00;90967.97;4747419;30;20058;-89
2024/02/24 01:14:23;;;;;;;0.80;0.80;;;;;;;0.89;100.00;90994.19;4742001;30;20106;-89
2024/02/24 01:16:49;;;;;;;0.80;0.80;;;;;;;0.75;100.00;90996.56;4723316;30;20105;-87
2024/02/24 01:19:14;;;;;;;0.80;0.80;;;;;;;0.67;100.00;90991.94;4727443;30;20054;-89
2024/02/24 01:21:43;;;;;;;0.60;0.60;;;;;;;0.72;100.00;90999.69;4718401;30;20052;-88
2024/02/24 01:24:09;;;;;;;1.20;0.90;;;;;;;0.64;100.00;90996.88;4726503;30;20388;-88
2024/02/24 01:26:34;;;;;;;0.70;0.70;;;;;;;0.75;100.00;91011.25;4753726;30;20115;-89
2024/02/24 01:29:00;;;;;;;0.75;0.75;;;;;;;0.68;100.00;91008.97;4746383;30;20203;-88
2024/02/24 01:31:25;;;;;;;0.85;0.85;;;;;;;0.61;100.00;90993.00;4719124;30;20041;-88
2024/02/24 01:33:51;;;;;;;0.70;0.70;;;;;;;0.65;100.00;91000.97;4737962;30;20105;-89
2024/02/24 01:36:17;;;;;;;0.80;0.80;;;;;;;0.67;100.00;91012.56;4724483;30;20047;-88
2024/02/24 01:38:42;;;;;;;0.70;0.70;;;;;;;0.67;100.00;91022.09;4706648;30;20058;-89
2024/02/24 01:41:08;;;;;;;0.70;0.70;;;;;;;0.54;100.00;91011.31;4746051;30;20039;-88
2024/02/24 01:43:37;;;;;;;0.85;0.85;;;;;;;0.58;100.00;91022.59;4711010;30;20103;-88
2024/02/24 01:46:03;;;;;;;0.80;0.80;;;;;;;0.56;100.00;91027.28;4719682;30;20132;-88
2024/02/24 01:48:31;;;;;;;1.17;0.80;;;;;;;0.61;100.00;91040.13;4746920;30;20032;-89
2024/02/24 01:50:57;;;;;;;0.60;0.60;;;;;;;0.68;100.00;91042.44;4745467;30;20383;-88
2024/02/24 01:53:24;;;;;;;0.73;0.73;;;;;;;0.69;100.00;91030.31;4729951;30;20043;-88
2024/02/24 01:55:51;;;;;;;0.60;0.60;;;;;;;0.67;100.00;91030.56;4724821;30;20048;-88
2024/02/24 01:58:18;;;;;;;0.60;0.60;;;;;;;0.66;100.00;91020.56;4760452;30;20147;-89
2024/02/24 02:00:45;;;;;;;0.80;0.80;;;;;;;0.66;100.00;91023.13;4731598;30;20045;-88
2024/02/24 02:03:10;;;;;;;0.70;0.70;;;;;;;0.59;100.00;91011.28;4746144;30;20195;-87
2024/02/24 02:05:36;;;;;;;0.70;0.70;;;;;;;0.66;100.00;91020.56;4731219;30;20553;-88
2024/02/24 02:08:02;;;;;;;0.63;0.63;;;;;;;0.68;100.00;91023.66;4729610;30;20101;-89
2024/02/24 02:10:47;;;;;;;0.63;0.63;;;;;;;0.67;100.00;91022.09;4742617;30;20662;-89
2024/02/24 02:13:14;;;;;;;0.88;0.70;;;;;;;0.70;100.00;91029.28;4744985;30;20584;-88
2024/02/24 02:15:41;;;;;;;0.65;0.65;;;;;;;0.69;100.00;91025.16;4745610;30;20115;-87
2024/02/24 02:18:07;;;;;;;0.82;0.80;;;;;;;0.66;100.00;91018.75;4736971;30;20105;-88
2024/02/24 02:20:33;;;;;;;0.70;0.70;;;;;;;0.51;100.00;91001.50;4726523;30;20044;-88
2024/02/24 02:22:59;;;;;;;0.80;0.80;;;;;;;0.54;100.00;91003.59;4723592;30;20104;-88
2024/02/24 02:25:25;;;;;;;0.85;0.80;;;;;;;0.54;100.00;91006.16;4739407;30;20056;-88
2024/02/24 02:27:50;;;;;;;0.57;0.57;;;;;;;0.46;100.00;91001.53;4730714;30;20047;-88
2024/02/24 02:30:16;;;;;;;0.63;0.63;;;;;;;0.61;100.00;91014.38;4715593;30;20511;-88
2024/02/24 02:32:41;;;;;;;2.40;0.90;;;;;;;0.60;100.00;91004.31;4715070;30;20498;-88
2024/02/24 02:35:09;;;;;;;0.70;0.70;;;;;;;0.60;100.00;91005.09;4727769;30;20047;-87
2024/02/24 02:37:35;;;;;;;0.82;0.82;;;;;;;0.54;100.00;90998.44;4734344;30;20454;-88
2024/02/24 02:40:02;;;;;;;0.70;0.70;;;;;;;0.64;100.00;91017.47;4730194;30;20039;-88
2024/02/24 02:42:28;;;;;;;0.70;0.70;;;;;;;0.58;100.00;91014.88;4730420;30;20044;-88
2024/02/24 02:44:53;;;;;;;0.80;0.80;;;;;;;0.53;100.00;91002.03;4728544;30;20040;-88
2024/02/24 02:47:19;;;;;;;0.82;0.82;;;;;;;0.74;100.00;91031.06;4724001;30;20051;-88
2024/02/24 02:49:44;;;;;;;0.80;0.80;;;;;;;0.68;100.00;91024.41;4735662;30;20068;-87
2024/02/24 02:52:10;;;;;;;0.80;0.80;;;;;;;0.81;100.00;91043.69;4686518;30;20553;-88
2024/02/24 02:54:35;;;;;;;0.70;0.70;;;;;;;0.87;100.00;91047.03;4726846;30;20059;-88
2024/02/24 02:57:02;;;;;;;0.60;0.60;;;;;;;0.82;100.00;91037.50;4725586;30;20044;-88
2024/02/24 02:59:27;;;;;;;0.70;0.70;;;;;;;0.85;100.00;91044.69;4729954;30;20040;-87
2024/02/24 03:01:54;;;;;;;0.80;0.80;;;;;;;0.90;100.00;91041.34;4730146;30;20047;-88
2024/02/24 03:04:20;;;;;;;0.70;0.70;;;;;;;0.88;100.00;91046.78;4742954;30;20075;-89
2024/02/24 03:06:46;;;;;;;1.00;0.80;;;;;;;0.76;100.00;91020.50;4743738;30;20079;-88
2024/02/24 03:09:12;;;;;;;0.80;0.80;;;;;;;0.79;100.00;91025.16;4701993;30;20422;-89
2024/02/24 03:11:37;;;;;;;0.80;0.80;;;;;;;0.83;100.00;91026.16;4726746;30;20487;-87
2024/02/24 03:14:03;;;;;;;0.90;0.80;;;;;;;0.96;100.00;91053.19;4744251;30;20047;-85
2024/02/24 03:16:29;;;;;;;0.60;0.60;;;;;;;0.95;100.00;91065.31;4735932;30;20040;-87
2024/02/24 03:18:55;;;;;;;1.05;0.90;;;;;;;0.97;100.00;91062.47;4724586;30;20351;-88
2024/02/24 03:21:25;;;;;;;0.70;0.70;;;;;;;0.86;100.00;91048.84;4741734;30;20044;-89
2024/02/24 03:23:51;;;;;;;1.33;0.90;;;;;;;1.02;100.00;91068.38;4729616;30;20437;-88
2024/02/24 03:26:16;;;;;;;0.90;0.90;;;;;;;1.03;100.00;91075.06;4747111;30;20104;-89
2024/02/24 03:28:42;;;;;;;0.70;0.70;;;;;;;1.04;100.00;91068.13;4747853;30;20564;-89
2024/02/24 03:31:07;;;;;;;0.73;0.70;;;;;;;0.90;100.00;91055.00;4749477;30;20381;-86
2024/02/24 03:33:33;;;;;;;0.90;0.90;;;;;;;1.01;100.00;91060.88;4749027;30;20042;-89
2024/02/24 03:35:59;;;;;;;0.70;0.70;;;;;;;1.04;100.00;91063.72;4736974;30;20040;-89
2024/02/24 03:38:24;;;;;;;0.70;0.70;;;;;;;0.99;100.00;91061.16;4737897;30;20056;-88
2024/02/24 03:40:50;;;;;;;0.73;0.73;;;;;;;1.02;100.00;91068.38;4744359;30;20108;-89
2024/02/24 03:43:16;;;;;;;0.90;0.70;;;;;;;1.03;100.00;91067.31;4729357;30;20055;-89
2024/02/24 03:45:42;;;;;;;1.27;0.90;;;;;;;1.06;100.00;91070.41;4737495;30;20040;-86
2024/02/24 03:48:07;;;;;;;0.75;0.75;;;;;;;0.92;100.00;91047.78;4711221;30;20048;-89
2024/02/24 03:50:33;;;;;;;1.15;0.80;;;;;;;1.00;100.00;91067.84;4729504;30;20398;-89
2024/02/24 03:53:00;;;;;;;1.05;0.82;;;;;;;1.02;100.00;91060.63;4735332;30;20048;-88
2024/02/24 03:55:26;;;;;;;2.53;0.80;;;;;;;0.93;100.00;91064.03;4748424;30;20100;-88
2024/02/24 03:57:51;;;;;;;1.40;1.00;;;;;;;0.94;100.00;91063.75;4751768;30;20546;-88
2024/02/24 04:00:17;;;;;;;2.17;0.90;;;;;;;1.00;100.00;91079.97;4725389;30;20037;-88
2024/02/24 04:02:43;;;;;;;0.70;0.70;;;;;;;0.88;100.00;91069.97;4734211;30;20119;-89
2024/02/24 04:05:09;;;;;;;1.15;0.90;;;;;;;0.94;100.00;91086.94;4739368;30;20553;-89
2024/02/24 04:07:34;;;;;;;0.88;0.88;;;;;;;0.93;100.00;91098.28;4750188;30;20056;-89
2024/02/24 04:10:00;;;;;;;0.80;0.80;;;;;;;0.93;100.00;91103.44;4718462;30;20033;-88
2024/02/24 04:12:25;;;;;;;0.70;0.70;;;;;;;0.93;100.00;91097.53;4739651;30;20053;-88
2024/02/24 04:14:51;;;;;;;0.63;0.63;;;;;;;0.98;100.00;91095.69;4724670;30;20044;-88
2024/02/24 04:17:17;;;;;;;0.90;0.90;;;;;;;0.92;100.00;91083.84;4732846;30;20048;-88
2024/02/24 04:19:42;;;;;;;0.82;0.73;;;;;;;1.04;100.00;91099.81;4732676;30;20040;-89
2024/02/24 04:22:08;;;;;;;0.95;0.70;;;;;;;1.05;100.00;91095.41;4749594;30;20055;-89
2024/02/24 04:24:33;;;;;;;0.98;0.88;;;;;;;1.04;100.00;91094.66;4745420;30;20053;-88
2024/02/24 04:26:59;;;;;;;1.02;0.93;;;;;;;1.11;100.00;91112.41;4701155;30;20048;-89
2024/02/24 04:29:25;;;;;;;3.35;0.88;;;;;;;0.87;100.00;91073.56;4741813;30;20051;-88
2024/02/24 04:31:51;;;;;;;1.00;0.88;;;;;;;1.14;100.00;91117.03;4729862;30;20045;-88
2024/02/24 04:34:17;;;;;;;0.80;0.80;;;;;;;1.14;100.00;91114.47;4735273;30;20478;-88
2024/02/24 04:36:42;;;;;;;0.80;0.80;;;;;;;1.18;100.00;91120.66;4725623;30;20106;-88
2024/02/24 04:39:11;;;;;;;1.20;0.93;;;;;;;1.15;100.00;91110.06;4723236;30;20043;-89
2024/02/24 04:41:37;;;;;;;0.88;0.88;;;;;;;1.09;100.00;91106.00;4727390;30;20387;-88
2024/02/24 04:44:02;;;;;;;0.77;0.77;;;;;;;1.21;100.00;91119.34;4731884;30;20043;-89
2024/02/24 04:46:28;;;;;;;0.82;0.82;;;;;;;1.10;100.00;91102.38;4708478;30;20040;-89
2024/02/24 04:48:54;;;;;;;0.65;0.65;;;;;;;1.19;100.00;91116.25;4726785;30;20487;-89
2024/02/24 04:51:20;;;;;;;2.80;1.70;;;;;;;1.27;100.00;91120.88;4713702;30;20590;-88
2024/02/24 04:53:48;;;;;;;1.33;0.98;;;;;;;1.16;100.00;91116.78;4744059;30;20066;-89
2024/02/24 04:56:16;;;;;;;0.93;0.90;;;;;;;0.95;100.00;91096.22;4735551;30;20055;-88
2024/02/24 04:58:42;;;;;;;1.33;1.00;;;;;;;1.10;100.00;91134.06;4745488;30;20056;-89
2024/02/24 05:01:08;;;;;;;1.15;0.93;;;;;;;1.04;100.00;91135.88;4739427;30;20059;-88
2024/02/24 05:03:34;;;;;;;0.90;0.90;;;;;;;1.04;100.00;91129.97;4744546;30;20042;-88
2024/02/24 05:06:00;;;;;;;0.90;0.82;;;;;;;0.97;100.00;91130.25;4753245;30;20032;-89
2024/02/24 05:08:25;;;;;;;0.90;0.75;;;;;;;0.97;100.00;91137.97;4736992;30;20096;-89
2024/02/24 05:10:51;;;;;;;1.00;0.90;;;;;;;0.98;100.00;91146.47;4782056;29;20040;-87
2024/02/24 05:13:16;;;;;;;0.90;0.90;;;;;;;0.97;100.00;91156.00;4748984;30;20032;-87
2024/02/24 05:15:42;;;;;;;0.98;0.90;;;;;;;0.96;100.00;91157.03;4731920;30;20056;-88
2024/02/24 05:18:08;;;;;;;0.80;0.80;;;;;;;0.98;100.00;91157.53;4721744;30;20048;-88
2024/02/24 05:20:33;;;;;;;0.95;0.90;;;;;;;1.01;100.00;91163.97;4766746;30;20040;-90
2024/02/24 05:23:01;;;;;;;1.10;1.00;;;;;;;1.03;100.00;91159.34;4756818;30;20122;-89
2024/02/24 05:25:26;;;;;;;2.10;0.80;;;;;;;1.05;100.00;91152.13;4763024;30;20068;-89
2024/02/24 05:27:53;;;;;;;0.73;0.73;;;;;;;1.06;100.00;91153.69;4726755;30;20080;-89
2024/02/24 05:30:19;;;;;;;1.48;0.80;;;;;;;1.02;100.00;91143.09;4721300;30;20044;-88
2024/02/24 05:32:45;;;;;;;1.02;0.88;;;;;;;0.99;100.00;91138.47;4752302;30;20084;-88
2024/02/24 05:35:10;;;;;;;1.25;0.90;;;;;;;0.89;100.00;91128.19;4723013;30;20045;-89
2024/02/24 05:37:36;;;;;;;0.98;0.90;;;;;;;1.07;100.00;91154.44;4730275;30;20032;-88
2024/02/24 05:40:02;;;;;;;3.85;1.00;;;;;;;1.03;100.00;91162.69;4727472;30;20052;-88
2024/02/24 05:42:28;;;;;;;1.35;0.98;;;;;;;1.06;100.00;91168.34;4709818;30;20106;-89
2024/02/24 05:44:54;;;;;;;0.90;0.85;;;;;;;1.01;100.00;91164.75;4736406;30;20084;-88
2024/02/24 05:47:19;;;;;;;1.20;1.00;;;;;;;1.02;100.00;91161.16;4732930;30;20076;-87
2024/02/24 05:49:45;;;;;;;1.05;0.98;;;;;;;1.08;100.00;91164.50;4728317;30;20054;-88
2024/02/24 05:52:10;;;;;;;1.10;1.00;;;;;;;1.00;100.00;91155.47;4735311;30;20058;-88
2024/02/24 05:54:39;;;;;;;1.83;0.90;;;;;;;1.07;100.00;91160.38;4706458;30;20336;-88
2024/02/24 05:57:05;;;;;;;1.50;1.00;;;;;;;1.01;100.00;91162.19;4707702;30;20028;-88
2024/02/24 05:59:30;;;;;;;1.17;1.00;;;;;;;0.97;100.00;91156.00;4731846;30;20343;-88
2024/02/24 06:01:56;;;;;;;0.90;0.90;;;;;;;0.88;100.00;91139.53;4729506;30;20033;-88
2024/02/24 06:04:21;;;;;;;1.58;1.15;;;;;;;0.91;100.00;91151.88;4720290;30;20506;-89
2024/02/24 06:06:48;;;;;;;1.42;1.20;;;;;;;0.89;100.00;91159.09;4737624;30;20040;-88
2024/02/24 06:09:15;;;;;;;1.63;1.20;;;;;;;0.88;100.00;91177.38;4725812;30;20068;-89
2024/02/24 06:11:41;;;;;;;1.40;1.08;;;;;;;0.98;100.00;91196.19;4716782;30;20040;-88
2024/02/24 06:14:07;;;;;;;1.45;1.15;;;;;;;0.93;100.00;91190.28;4730826;30;20538;-88
2024/02/24 06:16:33;;;;;;;2.10;1.40;;;;;;;1.07;100.00;91200.84;4712159;30;20035;-88
2024/02/24 06:18:58;;;;;;;2.03;1.33;;;;;;;1.08;100.00;91203.16;4708797;30;20052;-88
2024/02/24 06:21:25;;;;;;;1.25;1.00;;;;;;;1.06;100.00;91218.09;4745925;30;20074;-89
2024/02/24 06:23:51;;;;;;;1.00;0.90;;;;;;;1.00;100.00;91222.47;4730728;30;20548;-89
2024/02/24 06:26:17;;;;;;;1.20;1.00;;;;;;;0.94;100.00;91236.38;4717446;30;20060;-89
2024/02/24 06:28:43;;;;;;;1.88;1.30;;;;;;;0.84;100.00;91228.66;4737060;30;20492;-88
2024/02/24 06:31:09;;;;;;;1.83;1.15;;;;;;;0.90;100.00;91240.53;4742722;30;20052;-88
2024/02/24 06:33:34;;;;;;;1.45;1.10;;;;;;;0.87;100.00;91223.00;4712058;30;20477;-87
2024/02/24 06:36:02;;;;;;;1.33;1.08;;;;;;;0.92;100.00;91235.88;4716367;30;20387;-88
2024/02/24 06:38:28;;;;;;;1.73;1.20;;;;;;;0.87;100.00;91237.69;4738448;30;20135;-88
2024/02/24 06:40:53;;;;;;;1.13;1.00;;;;;;;0.86;100.00;91226.63;4729694;30;20131;-88
2024/02/24 06:43:19;;;;;;;1.48;1.10;;;;;;;0.89;100.00;91238.97;4746753;30;20056;-88
2024/02/24 06:45:46;;;;;;;1.73;1.10;;;;;;;0.91;100.00;91249.78;4711039;30;20098;-88
2024/02/24 06:48:11;;;;;;;1.65;1.23;;;;;;;0.83;100.00;91252.88;4742103;30;20501;-88
2024/02/24 06:50:37;;;;;;;1.45;1.17;;;;;;;0.90;100.00;91258.56;4711242;30;20048;-88
2024/02/24 06:53:03;;;;;;;3.35;1.35;;;;;;;0.96;100.00;91267.81;4696463;30;20083;-88
2024/02/24 06:55:28;;;;;;;0.75;0.75;;;;;;;1.21;100.00;91279.19;4711087;30;20044;-88
2024/02/24 06:57:54;;;;;;;1.88;1.20;;;;;;;1.01;100.00;91270.44;4734462;30;20064;-88
2024/02/24 07:00:21;;;;;;;1.98;1.20;;;;;;;1.02;100.00;91260.88;4727362;30;20048;-89
2024/02/24 07:02:47;;;;;;;2.22;1.42;;;;;;;0.96;100.00;91264.47;4707746;30;20106;-89
2024/02/24 07:05:13;;;;;;;2.45;1.38;;;;;;;1.13;100.00;91277.91;4727541;30;20047;-89
2024/02/24 07:07:38;;;;;;;2.28;1.35;;;;;;;1.03;100.00;91247.72;4705932;30;20483;-90
2024/02/24 07:10:04;;;;;;;1.67;1.20;;;;;;;1.12;100.00;91285.88;4714332;30;20040;-91
2024/02/24 07:12:31;;;;;;;1.90;1.38;;;;;;;0.94;100.00;91274.28;4724587;30;20047;-89
2024/02/24 07:14:57;;;;;;;2.28;1.50;;;;;;;0.94;100.00;91285.34;4705244;30;20033;-88
2024/02/24 07:17:23;;;;;;;2.22;1.40;;;;;;;1.02;100.00;91295.16;4741419;30;20048;-90
2024/02/24 07:19:49;;;;;;;2.47;1.70;;;;;;;1.01;100.00;91296.19;4731977;30;20044;-89
2024/02/24 07:22:15;;;;;;;2.45;1.60;;;;;;;0.98;100.00;91285.63;4709470;30;20059;-89
2024/02/24 07:24:41;;;;;;;2.53;1.50;;;;;;;0.71;100.00;91239.47;4729634;30;20068;-89
2024/02/24 07:27:09;;;;;;;2.53;1.55;;;;;;;0.96;100.00;91279.94;4722865;30;20098;-91
2024/02/24 07:29:35;;;;;;;3.05;1.70;;;;;;;1.06;100.00;91316.06;4725552;30;20044;-90
2024/02/24 07:32:00;;;;;;;3.13;1.80;;;;;;;0.91;100.00;91303.91;4732941;30;20044;-88
2024/02/24 07:34:29;;;;;;;2.83;1.50;;;;;;;0.88;100.00;91311.34;4737072;30;20035;-90
2024/02/24 07:36:55;;;;;;;2.00;1.40;;;;;;;1.01;100.00;91334.84;4696634;30;20040;-91
2024/02/24 07:39:39;;;;;;;;;;;;;;;;;;;;;
2024/02/24 07:42:12;;;;;;;2.08;1.30;;;;;;;0.88;100.00;91334.56;4728872;30;20143;-89
2024/02/24 07:44:39;;;;;;;1.65;1.30;;;;;;;0.66;100.00;91293.56;4723243;30;20127;-89
2024/02/24 07:47:07;;;;;;;3.05;1.52;;;;;;;0.85;100.00;91333.25;4715992;30;20032;-90
2024/02/24 07:49:33;;;;;;;2.67;1.52;;;;;;;0.55;100.00;91298.69;4697552;30;20040;-89
2024/02/24 07:51:59;;;;;;;2.50;1.70;;;;;;;0.76;100.00;91316.75;4705928;30;20048;-89
2024/02/24 07:54:24;;;;;;;4.18;2.67;;;;;;;0.60;100.00;91287.63;4741901;30;20416;-89
2024/02/24 07:56:53;;;;;;;2.75;1.83;;;;;;;0.82;100.00;91323.47;4704864;30;20509;-90
2024/02/24 07:59:21;;;;;;;2.85;1.90;;;;;;;0.95;100.00;91348.75;4722197;30;20044;-90
2024/02/24 08:01:46;;;;;;;2.53;1.50;;;;;;;0.74;100.00;91316.22;4691238;30;20502;-89
2024/02/24 08:04:15;;;;;;;2.15;1.40;;;;;;;0.98;100.00;91358.53;4729795;30;20546;-89
2024/02/24 08:06:40;;;;;;;3.58;1.90;;;;;;;0.65;100.00;91317.75;4737135;30;20070;-90
2024/02/24 08:09:06;;;;;;;3.47;2.15;;;;;;;0.63;100.00;91336.03;4727037;30;20423;-89
2024/02/24 08:11:39;;;;;;;4.00;2.00;;;;;;;0.61;100.00;91331.16;4732478;30;20491;-89
2024/02/24 08:14:16;;;;;;;2.60;1.80;;;;;;;0.72;100.00;91359.50;4734607;30;20508;-89
2024/02/24 08:16:42;;;;;;;3.13;1.92;;;;;;;0.79;100.00;91367.78;4741460;30;20093;-90
2024/02/24 08:19:10;;;;;;;2.70;1.73;;;;;;;0.72;100.00;91356.94;4719957;30;20438;-90
2024/02/24 08:21:37;;;;;;;2.80;1.63;;;;;;;0.87;100.00;91366.50;4718603;30;20487;-90
2024/02/24 08:24:09;;;;;;;3.42;1.85;;;;;;;0.87;100.00;91382.75;4709947;30;20036;-89
2024/02/24 08:26:38;;;;;;;3.05;1.77;;;;;;;0.64;100.00;91352.28;4731702;30;20052;-89
2024/02/24 08:29:05;;;;;;;2.97;1.77;;;;;;;0.85;100.00;91373.72;4728343;30;20037;-90
2024/02/24 08:31:33;;;;;;;3.30;1.80;;;;;;;0.75;100.00;91353.88;4709915;30;20140;-89
2024/02/24 08:33:58;;;;;;;3.22;2.00;;;;;;;0.91;100.00;91383.78;4704520;30;20072;-90
2024/02/24 08:36:24;;;;;;;2.78;1.65;;;;;;;1.35;100.00;91404.00;4723579;30;20480;-88
2024/02/24 08:38:52;;;;;;;3.10;1.98;;;;;;;1.12;100.00;91410.38;4711216;30;20075;-89
2024/02/24 08:41:17;;;;;;;3.33;1.90;;;;;;;0.91;100.00;91403.63;4714452;30;20514;-89
2024/02/24 08:43:43;;;;;;;2.90;1.80;;;;;;;0.79;100.00;91396.91;4709941;30;20041;-89
2024/02/24 08:46:19;;;;;;;2.95;1.70;;;;;;;0.71;100.00;91383.72;4733420;30;20040;-89
2024/02/24 08:48:47;;;;;;;3.38;1.83;;;;;;;0.60;100.00;91365.66;4725740;30;20183;-90
2024/02/24 08:51:15;;;;;;;2.58;1.63;;;;;;;0.75;100.00;91390.69;4731059;30;20056;-90
2024/02/24 08:53:43;;;;;;;2.88;1.70;;;;;;;0.74;100.00;91398.66;4712663;30;20033;-90
2024/02/24 08:56:11;;;;;;;3.20;1.50;;;;;;;1.14;100.00;91428.94;4728419;30;20044;-91
2024/02/24 08:58:37;;;;;;;2.65;1.70;;;;;;;0.77;100.00;91390.44;4715031;30;20048;-89
2024/02/24 09:01:03;;;;;;;3.35;1.85;;;;;;;0.81;100.00;91404.34;4717202;30;20564;-91
2024/02/24 09:03:29;;;;;;;3.33;1.80;;;;;;;0.88;100.00;91417.81;4719327;30;20475;-91
2024/02/24 09:05:57;;;;;;;3.47;1.80;;;;;;;0.91;100.00;91414.72;4712729;30;20228;-92
2024/02/24 09:08:27;;;;;;;3.10;1.95;;;;;;;0.91;100.00;91395.91;4743489;30;20082;-90
2024/02/24 09:10:53;;;;;;;2.60;1.70;;;;;;;0.97;100.00;91382.78;4736265;30;20052;-92
2024/02/24 09:13:18;;;;;;;2.67;1.67;;;;;;;1.33;100.00;91411.22;4726173;30;20037;-92
2024/02/24 09:15:47;;;;;;;2.63;1.63;;;;;;;1.43;100.00;91424.09;4726628;30;20040;-89
2024/02/24 09:18:15;;;;;;;3.60;1.95;;;;;;;1.22;100.00;91409.66;4715028;30;20552;-90
2024/02/24 09:20:40;;;;;;;30.40;2.42;;;;;;;1.27;100.00;91432.84;4718325;30;20047;-91
2024/02/24 09:23:08;;;;;;;21.15;2.25;;;;;;;0.98;100.00;91412.66;4715937;30;20044;-90
2024/02/24 09:29:55;;;;;;;3.00;1.90;;;;;;;0.98;100.00;91389.47;4751886;30;20041;-92
2024/02/24 09:32:23;;;;;;;3.08;1.70;;;;;;;1.33;100.00;91424.09;4735879;30;20053;-88
2024/02/24 09:34:53;;;;;;;3.20;1.83;;;;;;;1.61;100.00;91440.13;4724507;30;20490;-89
2024/02/24 09:37:19;;;;;;;3.00;1.80;;;;;;;1.58;100.00;91420.78;4723669;30;20048;-89
2024/02/24 09:39:45;;;;;;;3.80;1.77;;;;;;;1.72;100.00;91439.09;4753885;30;20016;-93
2024/02/24 09:42:13;;;;;;;3.30;1.88;;;;;;;1.44;100.00;91405.03;4731322;30;20049;-91
2024/02/24 09:44:41;;;;;;;3.30;1.83;;;;;;;1.55;100.00;91418.69;4704416;30;20044;-90
2024/02/24 09:47:08;;;;;;;3.55;1.90;;;;;;;1.80;100.00;91446.34;4714513;30;20119;-91
2024/02/24 09:49:44;;;;;;;2.40;1.60;;;;;;;1.84;100.00;91452.50;4717032;30;20033;-91
2024/02/24 09:52:10;;;;;;;4.15;1.80;;;;;;;1.98;100.00;91467.50;4702098;30;20135;-91
2024/02/24 09:54:38;;;;;;;2.58;1.67;;;;;;;1.71;100.00;91416.13;4718538;30;20131;-89
2024/02/24 09:57:04;;;;;;;3.28;1.70;;;;;;;1.86;100.00;91436.78;4702275;30;20384;-90
2024/02/24 09:59:32;;;;;;;2.55;1.50;;;;;;;2.14;100.00;91466.47;4701918;30;20028;-89
2024/02/24 10:02:00;;;;;;;2.17;1.50;;;;;;;2.03;100.00;91441.69;4716031;30;20089;-90
2024/02/24 10:04:27;;;;;;;3.20;1.60;;;;;;;2.39;100.00;91470.06;4715126;30;20537;-90
2024/02/24 10:06:55;;;;;;;3.17;1.80;;;;;;;2.49;100.00;91446.78;4692953;30;20062;-90
2024/02/24 10:09:23;;;;;;;2.95;2.00;;;;;;;2.59;100.00;91425.31;4735226;30;20036;-90
2024/02/24 10:11:51;;;;;;;3.40;1.98;;;;;;;3.07;100.00;91472.97;4730645;30;20122;-90
2024/02/24 10:14:20;;;;;;;3.00;1.90;;;;;;;3.26;100.00;91446.53;4731063;30;20066;-90
2024/02/24 10:16:52;;;;;;;3.75;1.90;;;;;;;3.57;100.00;91454.13;4718047;30;20045;-91
2024/02/24 10:19:17;;;;;;;3.10;2.00;;;;;;;3.94;100.00;91469.94;4711261;30;20037;-89
2024/02/24 10:21:43;;;;;;;3.25;1.95;;;;;;;4.01;100.00;91430.78;4722406;30;20051;-90
2024/02/24 10:24:09;;;;;;;3.92;2.20;;;;;;;4.33;100.00;91470.94;4693286;30;20041;-90
2024/02/24 10:26:37;;;;;;;6.45;2.50;;;;;;;4.10;100.00;91436.16;4721011;30;20048;-91
2024/02/24 10:29:08;;;;;;;4.32;2.60;;;;;;;4.28;100.00;91452.81;4707449;30;20040;-90
2024/02/24 10:31:37;;;;;;;4.82;2.30;;;;;;;4.18;100.00;91428.56;4718525;30;20851;-90
2024/02/24 10:34:04;;;;;;;6.10;2.50;;;;;;;4.33;100.00;91460.56;4722826;30;20068;-90
2024/02/24 10:36:43;;;;;;;4.70;2.67;;;;;;;4.17;100.00;91457.34;4722182;30;20040;-90
2024/02/24 10:39:10;;;;;;;4.53;2.40;;;;;;;4.34;100.00;91473.25;4712015;30;20040;-90
2024/02/24 10:41:43;;;;;;;4.25;2.50;;;;;;;4.36;100.00;91462.63;4701343;30;20120;-91
2024/02/24 10:47:41;;;;;;;4.72;2.63;;;;;;;4.92;100.00;91471.69;4714793;30;20076;-90
2024/02/24 10:50:27;;;;;;;4.53;2.70;;;;;;;4.95;100.00;91445.97;4714430;30;20064;-90
2024/02/24 10:52:55;;;;;;;4.50;2.53;;;;;;;5.20;100.00;91483.03;4730404;30;20045;-90
2024/02/24 10:55:23;;;;;;;5.47;2.45;;;;;;;4.80;100.00;91477.25;4750105;30;20040;-90
2024/02/24 10:57:52;;;;;;;5.35;1.98;;;;;;;4.49;100.00;91437.88;4737359;30;20045;-90
2024/02/24 11:00:31;;;;;;;5.38;2.60;;;;;;;4.52;100.00;91479.56;4708878;30;20107;-90
2024/02/24 11:03:03;;;;;;;4.65;2.30;;;;;;;4.31;100.00;91460.84;4721055;30;20119;-90
2024/02/24 11:05:29;;;;;;;5.75;2.70;;;;;;;3.84;100.00;91451.88;4712867;30;20040;-90
2024/02/24 11:07:55;;;;;;;3.22;1.98;;;;;;;3.73;100.00;91453.00;4701968;30;20039;-89
2024/02/24 11:10:22;;;;;;;5.20;2.47;;;;;;;3.76;100.00;91468.00;4716748;30;20091;-89
2024/02/24 11:12:53;;;;;;;6.80;2.50;;;;;;;3.78;100.00;91496.19;4701686;30;20024;-89
2024/02/24 11:15:23;;;;;;;5.13;2.90;;;;;;;3.42;100.00;91454.97;4714357;30;20053;-89
2024/02/24 11:17:56;;;;;;;4.68;2.20;;;;;;;3.71;100.00;91484.31;4716250;30;20060;-89
2024/02/24 11:20:42;;;;;;;3.60;1.92;;;;;;;3.93;100.00;91496.09;4712535;30;20044;-89
2024/02/24 11:23:32;;;;;;;3.53;2.15;;;;;;;3.75;100.00;91502.69;4707590;30;20045;-89
2024/02/24 11:26:24;;;;;;;5.28;2.45;;;;;;;3.58;100.00;91510.00;4713389;30;20065;-90
2024/02/24 11:29:02;;;;;;;5.10;2.42;;;;;;;3.20;100.00;91486.38;4707411;30;20064;-89
2024/02/24 11:31:31;;;;;;;4.80;2.40;;;;;;;3.11;100.00;91484.34;4713618;30;20044;-90
2024/02/24 11:34:05;;;;;;;5.10;2.38;;;;;;;3.34;100.00;91513.22;4727799;30;20621;-89
2024/02/24 11:36:33;;;;;;;5.75;2.58;;;;;;;3.32;100.00;91517.91;4712062;30;20380;-89
2024/02/24 11:39:03;;;;;;;6.68;2.63;;;;;;;3.16;100.00;91495.72;4719327;30;20063;-90
2024/02/24 11:41:29;;;;;;;4.80;2.50;;;;;;;3.20;100.00;91513.03;4709335;30;20049;-89